Time;durP1;ratioP1;P1;durP2;ratioP2;P2;SDS_P1;SDS_P2;PMS_P1;PMS_P2;Temp;Humidity;BMP_temperature;BMP_pressure;BME280_temperature;BME280_humidity;BME280_pressure;Samples;Min_cycle;Max_cycle;Signal;HPM_P1;HPM_P2
2023/12/09 00:01:25;;;;;;;100.82;34.40;;;7.40;99.90;;;;;;5055818;28;20056;-20
2023/12/09 00:03:51;;;;;;;115.32;34.92;;;7.40;99.90;;;;;;5055724;28;20523;-21
2023/12/09 00:06:18;;;;;;;117.38;36.30;;;7.70;99.90;;;;;;5054451;28;20123;-21
2023/12/09 00:08:44;;;;;;;98.47;33.05;;;7.70;99.90;;;;;;5055657;28;20041;-21
2023/12/09 00:11:10;;;;;;;84.60;29.02;;;7.60;99.90;;;;;;5054684;28;20602;-20
2023/12/09 00:13:35;;;;;;;109.53;34.15;;;7.40;99.90;;;;;;5055594;28;20080;-21
2023/12/09 00:16:01;;;;;;;97.05;31.73;;;7.50;99.90;;;;;;5055532;28;20391;-21
2023/12/09 00:18:27;;;;;;;121.90;36.63;;;7.50;99.90;;;;;;5055441;28;20091;-21
2023/12/09 00:20:52;;;;;;;99.03;33.58;;;7.50;99.90;;;;;;5055711;28;20407;-21
2023/12/09 00:23:18;;;;;;;120.47;34.47;;;7.40;99.90;;;;;;5055329;28;20045;-21
2023/12/09 00:25:44;;;;;;;119.65;39.08;;;7.60;99.90;;;;;;5055356;28;20044;-21
2023/12/09 00:28:10;;;;;;;102.32;33.63;;;7.60;99.90;;;;;;5055350;28;20045;-21
2023/12/09 00:30:35;;;;;;;97.80;32.72;;;7.40;99.90;;;;;;5055831;28;20041;-21
2023/12/09 00:33:01;;;;;;;116.00;33.17;;;7.50;99.90;;;;;;5053632;28;20483;-21
2023/12/09 00:35:27;;;;;;;116.15;37.15;;;7.70;99.90;;;;;;5055718;28;20045;-21
2023/12/09 00:37:53;;;;;;;81.88;30.83;;;7.40;99.90;;;;;;5054769;28;20403;-21
2023/12/09 00:40:19;;;;;;;105.55;36.10;;;7.60;99.90;;;;;;5055322;28;20045;-21
2023/12/09 00:42:46;;;;;;;104.85;32.70;;;7.60;99.90;;;;;;5055020;28;20550;-21
2023/12/09 00:45:13;;;;;;;110.43;35.28;;;7.40;99.90;;;;;;5054936;28;20053;-21
2023/12/09 00:47:39;;;;;;;91.47;33.22;;;7.60;99.90;;;;;;5054937;28;20071;-21
2023/12/09 00:50:05;;;;;;;93.00;31.73;;;7.50;99.90;;;;;;5054188;28;20053;-21
2023/12/09 00:52:31;;;;;;;85.95;31.88;;;7.50;99.90;;;;;;5053639;28;20048;-21
2023/12/09 00:54:57;;;;;;;89.47;34.03;;;7.40;99.90;;;;;;5054493;28;20052;-21
2023/12/09 00:57:24;;;;;;;91.95;31.48;;;7.60;99.90;;;;;;5055378;28;20053;-21
2023/12/09 00:59:50;;;;;;;96.40;32.05;;;7.60;99.90;;;;;;5054624;28;20475;-21
2023/12/09 01:02:16;;;;;;;90.45;34.00;;;7.70;99.90;;;;;;5054641;28;20060;-21
2023/12/09 01:04:42;;;;;;;95.15;35.83;;;7.50;99.90;;;;;;5054601;28;20045;-21
2023/12/09 01:07:08;;;;;;;83.78;34.42;;;7.40;99.90;;;;;;5054561;28;20562;-21
2023/12/09 01:09:34;;;;;;;90.47;32.00;;;7.40;99.90;;;;;;5054542;28;20410;-21
2023/12/09 01:12:00;;;;;;;108.68;37.28;;;7.60;99.90;;;;;;5053249;28;20049;-21
2023/12/09 01:14:33;;;;;;;84.57;29.40;;;7.60;99.90;;;;;;5091527;27;20463;-22
2023/12/09 01:16:59;;;;;;;100.00;31.50;;;7.50;99.90;;;;;;5091843;28;20508;-21
2023/12/09 01:19:24;;;;;;;89.82;33.08;;;7.60;99.90;;;;;;5090845;28;20075;-21
2023/12/09 01:21:50;;;;;;;88.30;32.55;;;7.60;99.90;;;;;;5091038;28;20055;-21
2023/12/09 01:24:16;;;;;;;88.50;31.70;;;7.40;99.90;;;;;;5091060;28;20394;-22
2023/12/09 01:26:42;;;;;;;96.85;32.05;;;7.40;99.90;;;;;;5091594;28;20074;-22
2023/12/09 01:29:07;;;;;;;99.40;31.38;;;7.60;99.90;;;;;;5090827;28;20126;-22
2023/12/09 01:31:33;;;;;;;86.85;32.70;;;7.50;99.90;;;;;;5090954;28;20059;-21
2023/12/09 01:33:59;;;;;;;95.90;33.53;;;7.50;99.90;;;;;;5090819;28;20545;-21
2023/12/09 01:36:25;;;;;;;92.50;33.70;;;7.60;99.90;;;;;;5090569;28;20044;-21
2023/12/09 01:38:51;;;;;;;82.80;30.33;;;7.50;99.90;;;;;;5090765;28;20059;-22
2023/12/09 01:41:16;;;;;;;78.70;33.30;;;7.60;99.90;;;;;;5089566;28;20040;-22
2023/12/09 01:43:47;;;;;;;75.68;28.58;;;7.50;99.90;;;;;;5090658;28;20048;-22
2023/12/09 01:46:14;;;;;;;68.40;26.95;;;7.50;99.90;;;;;;5090987;28;20376;-21
2023/12/09 01:48:40;;;;;;;88.78;30.52;;;7.50;99.90;;;;;;5090577;28;20482;-22
2023/12/09 01:51:07;;;;;;;75.82;30.42;;;7.50;99.90;;;;;;5089693;28;20544;-21
2023/12/09 01:53:35;;;;;;;74.18;30.50;;;7.60;99.90;;;;;;5090966;28;20045;-21
2023/12/09 01:56:04;;;;;;;66.72;26.30;;;7.50;99.90;;;;;;5089795;28;20048;-21
2023/12/09 01:58:33;;;;;;;65.60;27.55;;;7.70;99.90;;;;;;5091031;28;20387;-22
2023/12/09 02:00:59;;;;;;;70.50;30.17;;;7.50;99.90;;;;;;5091194;28;20090;-22
2023/12/09 02:03:25;;;;;;;75.75;29.73;;;7.50;99.90;;;;;;5090392;28;20127;-22
2023/12/09 02:05:51;;;;;;;73.20;28.92;;;7.50;99.90;;;;;;5090270;28;20497;-21
2023/12/09 02:08:17;;;;;;;68.13;25.10;;;7.60;99.90;;;;;;5089031;28;20040;-21
2023/12/09 02:10:44;;;;;;;68.10;24.85;;;7.60;99.90;;;;;;5090191;28;20040;-21
2023/12/09 02:13:39;;;;;;;74.68;25.92;;;7.60;99.90;;;;;;5089863;28;20410;-22
2023/12/09 02:16:46;;;;;;;62.88;26.20;;;7.60;99.90;;;;;;5090250;28;20560;-21
2023/12/09 02:19:13;;;;;;;66.10;24.77;;;7.60;99.90;;;;;;5089181;28;20498;-22
2023/12/09 02:22:03;;;;;;;58.15;20.08;;;7.60;99.90;;;;;;5089964;28;20063;-22
2023/12/09 02:24:29;;;;;;;81.32;27.85;;;7.60;99.90;;;;;;5084513;28;20054;-21
2023/12/09 02:27:25;;;;;;;60.53;23.00;;;7.60;99.90;;;;;;5076043;28;20111;-22
2023/12/09 02:30:00;;;;;;;71.25;26.45;;;7.60;99.90;;;;;;5075888;28;20125;-22
2023/12/09 02:32:30;;;;;;;76.53;23.88;;;7.60;99.90;;;;;;5076269;28;20045;-22
2023/12/09 02:34:58;;;;;;;66.65;24.13;;;7.50;99.90;;;;;;5075606;28;20048;-22
2023/12/09 02:37:26;;;;;;;72.35;24.13;;;7.60;99.90;;;;;;5076222;28;20113;-22
2023/12/09 02:39:53;;;;;;;68.18;24.02;;;7.60;99.90;;;;;;5076180;28;20044;-22
2023/12/09 02:42:19;;;;;;;79.57;24.45;;;7.50;99.90;;;;;;5076374;28;20049;-22
2023/12/09 02:44:45;;;;;;;64.05;23.52;;;7.50;99.90;;;;;;5076347;28;20530;-22
2023/12/09 02:47:14;;;;;;;67.05;23.95;;;7.60;99.90;;;;;;5076609;28;20087;-22
2023/12/09 02:49:41;;;;;;;50.97;22.08;;;7.60;99.90;;;;;;5076088;28;20097;-22
2023/12/09 02:52:07;;;;;;;53.17;22.58;;;7.50;99.90;;;;;;5075379;28;20055;-22
2023/12/09 02:54:33;;;;;;;60.20;24.33;;;7.60;99.90;;;;;;5075902;28;20045;-22
2023/12/09 02:56:59;;;;;;;48.38;21.55;;;7.50;99.90;;;;;;5075880;28;20088;-22
2023/12/09 02:59:27;;;;;;;53.40;21.02;;;7.50;99.90;;;;;;5075826;28;20084;-22
2023/12/09 03:01:53;;;;;;;64.38;25.50;;;7.50;99.90;;;;;;5076408;28;20545;-22
2023/12/09 03:04:18;;;;;;;78.13;28.02;;;7.40;99.90;;;;;;5074532;28;20076;-22
2023/12/09 03:06:44;;;;;;;59.00;24.42;;;7.50;99.90;;;;;;5075947;28;20059;-22
2023/12/09 03:09:10;;;;;;;61.97;22.88;;;7.50;99.90;;;;;;5041231;28;20394;-22
2023/12/09 03:11:36;;;;;;;67.32;23.88;;;7.40;99.90;;;;;;5075143;28;20059;-22
2023/12/09 03:14:02;;;;;;;60.67;21.80;;;7.40;99.90;;;;;;5074890;28;20060;-22
2023/12/09 03:16:28;;;;;;;70.45;24.48;;;7.40;99.90;;;;;;5075495;28;20130;-22
2023/12/09 03:18:53;;;;;;;69.40;23.33;;;7.30;99.90;;;;;;5075419;28;20044;-22
2023/12/09 03:21:19;;;;;;;53.38;22.48;;;7.40;99.90;;;;;;5075938;28;20048;-22
2023/12/09 03:23:45;;;;;;;55.47;21.15;;;7.40;99.90;;;;;;5075273;28;20037;-22
2023/12/09 03:26:18;;;;;;;57.13;23.27;;;7.40;99.90;;;;;;5075588;28;20041;-22
2023/12/09 03:28:44;;;;;;;61.90;23.75;;;7.40;99.90;;;;;;5074012;28;20048;-22
2023/12/09 03:31:12;;;;;;;47.90;18.77;;;7.40;99.90;;;;;;5075246;28;20083;-22
2023/12/09 03:33:38;;;;;;;54.90;21.17;;;7.30;99.90;;;;;;5075040;28;20037;-22
2023/12/09 03:36:05;;;;;;;58.38;21.90;;;7.30;99.90;;;;;;5074088;28;20047;-22
2023/12/09 03:38:31;;;;;;;47.70;19.48;;;7.40;99.90;;;;;;5075069;28;20452;-22
2023/12/09 03:40:57;;;;;;;49.83;19.35;;;7.30;99.90;;;;;;5075004;28;20127;-22
2023/12/09 03:43:22;;;;;;;50.58;20.17;;;7.30;99.90;;;;;;5057221;28;20044;-22
2023/12/09 03:45:48;;;;;;;59.22;18.85;;;7.10;99.90;;;;;;5074872;28;20044;-22
2023/12/09 03:48:14;;;;;;;37.58;16.83;;;7.20;99.90;;;;;;5075387;28;20131;-22
2023/12/09 03:50:40;;;;;;;50.28;21.05;;;7.20;99.90;;;;;;5074774;28;20052;-23
2023/12/09 03:53:05;;;;;;;50.63;18.02;;;7.10;99.90;;;;;;5056911;28;20048;-22
2023/12/09 03:55:31;;;;;;;53.25;19.35;;;7.10;99.90;;;;;;5074750;28;20052;-22
2023/12/09 03:57:57;;;;;;;61.72;20.17;;;7.20;99.90;;;;;;5075187;28;20041;-23
2023/12/09 04:00:23;;;;;;;48.83;21.02;;;7.20;99.90;;;;;;5074851;28;20053;-23
2023/12/09 04:02:49;;;;;;;46.50;18.15;;;7.10;99.90;;;;;;5074538;28;20041;-23
2023/12/09 04:05:15;;;;;;;50.20;19.15;;;7.20;99.90;;;;;;5073927;28;20055;-23
2023/12/09 04:07:40;;;;;;;44.60;16.65;;;7.20;99.90;;;;;;5074525;28;20497;-22
2023/12/09 04:10:09;;;;;;;49.97;20.35;;;7.20;99.90;;;;;;5073219;28;20048;-23
2023/12/09 04:12:34;;;;;;;52.42;19.83;;;7.10;99.90;;;;;;5073681;28;20186;-22
2023/12/09 04:15:01;;;;;;;46.97;16.98;;;7.10;99.90;;;;;;5074334;28;20131;-23
2023/12/09 04:17:27;;;;;;;45.45;20.40;;;7.20;99.90;;;;;;5074572;28;20509;-22
2023/12/09 04:19:53;;;;;;;43.30;19.27;;;7.10;99.90;;;;;;5073217;28;20044;-23
2023/12/09 04:22:19;;;;;;;47.90;21.33;;;7.20;99.90;;;;;;5074139;28;20047;-22
2023/12/09 04:24:45;;;;;;;38.42;17.45;;;7.10;99.90;;;;;;5074110;28;20502;-23
2023/12/09 04:27:12;;;;;;;61.72;23.80;;;7.10;99.90;;;;;;5074138;28;20090;-23
2023/12/09 04:29:38;;;;;;;55.03;19.90;;;7.10;99.90;;;;;;5074128;28;20045;-23
2023/12/09 04:32:04;;;;;;;44.55;19.42;;;7.10;99.90;;;;;;5072790;28;20053;-23
2023/12/09 04:34:30;;;;;;;52.45;18.88;;;7.20;99.90;;;;;;5073895;28;20040;-23
2023/12/09 04:36:56;;;;;;;46.50;17.30;;;7.10;99.90;;;;;;5073998;28;20495;-23
2023/12/09 04:39:22;;;;;;;55.95;19.80;;;7.10;99.90;;;;;;5073925;28;20045;-23
2023/12/09 04:41:48;;;;;;;42.15;19.40;;;7.10;99.90;;;;;;5073361;28;20052;-23
2023/12/09 04:44:13;;;;;;;47.88;19.02;;;7.20;99.90;;;;;;5073876;28;20044;-23
2023/12/09 04:46:39;;;;;;;60.17;20.95;;;7.10;99.90;;;;;;5073550;28;20059;-23
2023/12/09 04:49:05;;;;;;;30.80;13.43;;;7.10;99.90;;;;;;5074114;28;20053;-23
2023/12/09 04:51:31;;;;;;;35.88;14.85;;;7.10;99.90;;;;;;5073823;28;20045;-23
2023/12/09 04:53:56;;;;;;;34.25;15.32;;;7.10;99.90;;;;;;5073705;28;20063;-23
2023/12/09 04:56:22;;;;;;;39.78;16.98;;;7.20;99.90;;;;;;5073769;28;20054;-23
2023/12/09 04:58:48;;;;;;;47.25;16.80;;;7.10;99.90;;;;;;5074225;28;20044;-23
2023/12/09 05:01:14;;;;;;;36.67;14.40;;;7.10;99.90;;;;;;5074522;28;20082;-23
2023/12/09 05:03:41;;;;;;;48.25;16.95;;;7.10;99.90;;;;;;5073701;28;20048;-23
2023/12/09 05:06:08;;;;;;;41.33;16.42;;;7.10;99.90;;;;;;5073627;28;20044;-23
2023/12/09 05:08:33;;;;;;;40.38;14.45;;;7.10;99.90;;;;;;5073634;28;20048;-23
2023/12/09 05:10:59;;;;;;;45.17;17.10;;;7.00;99.90;;;;;;5072413;28;20467;-24
2023/12/09 05:13:25;;;;;;;40.70;14.88;;;7.10;99.90;;;;;;5073600;28;20484;-24
2023/12/09 05:15:51;;;;;;;37.13;13.10;;;7.10;99.90;;;;;;5073100;28;20055;-23
2023/12/09 05:18:17;;;;;;;35.10;12.93;;;7.20;99.90;;;;;;5073543;28;20047;-24
2023/12/09 05:20:44;;;;;;;43.60;13.75;;;7.20;99.90;;;;;;5073573;28;20048;-23
2023/12/09 05:23:09;;;;;;;40.92;13.85;;;7.10;99.90;;;;;;5073455;28;20048;-24
2023/12/09 05:25:35;;;;;;;43.55;15.48;;;7.20;99.90;;;;;;5073465;28;20049;-23
2023/12/09 05:28:01;;;;;;;43.17;16.25;;;7.20;99.90;;;;;;5073409;28;20497;-24
2023/12/09 05:30:27;;;;;;;40.17;15.25;;;7.20;99.90;;;;;;5073406;28;20052;-24
2023/12/09 05:32:53;;;;;;;37.55;14.88;;;7.20;99.90;;;;;;5073358;28;20036;-24
2023/12/09 05:35:19;;;;;;;44.13;15.10;;;7.10;99.90;;;;;;5073362;28;20044;-24
2023/12/09 05:37:45;;;;;;;49.60;17.02;;;7.10;99.90;;;;;;5073569;28;20045;-24
2023/12/09 05:40:11;;;;;;;54.20;16.52;;;7.10;99.90;;;;;;5055475;28;20044;-24
2023/12/09 05:42:37;;;;;;;49.53;16.75;;;7.20;99.90;;;;;;5073855;28;20055;-24
2023/12/09 05:45:03;;;;;;;39.72;14.43;;;7.10;99.90;;;;;;5073258;28;20087;-24
2023/12/09 05:47:29;;;;;;;36.13;13.85;;;7.10;99.90;;;;;;5073198;28;20482;-24
2023/12/09 05:49:54;;;;;;;45.83;14.50;;;7.20;99.90;;;;;;5073222;28;20098;-24
2023/12/09 05:52:20;;;;;;;33.70;12.35;;;7.20;99.90;;;;;;5072421;28;20045;-24
2023/12/09 05:54:46;;;;;;;31.63;12.73;;;7.10;99.90;;;;;;5073154;28;20466;-24
2023/12/09 05:57:12;;;;;;;37.03;13.68;;;7.10;99.90;;;;;;5073433;28;20049;-24
2023/12/09 05:59:38;;;;;;;28.83;8.95;;;7.10;99.90;;;;;;5074050;28;20052;-24
2023/12/09 06:02:04;;;;;;;47.38;15.60;;;7.20;99.90;;;;;;5076877;28;20045;-24
2023/12/09 06:04:30;;;;;;;28.52;12.07;;;7.10;99.90;;;;;;5075647;28;20045;-24
2023/12/09 06:06:55;;;;;;;34.00;11.95;;;7.10;99.90;;;;;;5076772;28;20398;-24
2023/12/09 06:09:21;;;;;;;38.13;13.68;;;7.10;99.90;;;;;;5077010;28;20048;-24
2023/12/09 06:11:47;;;;;;;38.97;13.88;;;7.10;99.90;;;;;;5075509;28;20044;-24
2023/12/09 06:14:12;;;;;;;37.92;14.82;;;7.10;99.90;;;;;;5076416;28;20110;-24
2023/12/09 06:16:38;;;;;;;40.30;12.40;;;7.00;99.90;;;;;;5076603;28;20055;-24
2023/12/09 06:19:04;;;;;;;51.33;15.25;;;7.10;99.90;;;;;;5075878;28;20044;-24
2023/12/09 06:21:30;;;;;;;35.38;12.10;;;7.10;99.90;;;;;;5076234;28;20040;-25
2023/12/09 06:23:56;;;;;;;41.70;14.38;;;7.00;99.90;;;;;;5076639;28;20056;-24
2023/12/09 06:26:21;;;;;;;42.17;14.05;;;6.90;99.90;;;;;;5075504;28;20450;-24
2023/12/09 06:28:47;;;;;;;38.10;12.45;;;7.00;99.90;;;;;;5077216;28;20040;-25
2023/12/09 06:31:13;;;;;;;30.55;12.55;;;7.00;99.90;;;;;;5076370;28;20048;-24
2023/12/09 06:33:39;;;;;;;41.65;12.20;;;7.00;99.90;;;;;;5076266;28;20037;-25
2023/12/09 06:36:05;;;;;;;50.30;15.60;;;6.90;99.90;;;;;;5076261;28;20076;-25
2023/12/09 06:38:34;;;;;;;45.28;13.68;;;6.90;99.90;;;;;;5059357;28;20066;-25
2023/12/09 06:41:00;;;;;;;26.13;11.43;;;7.00;99.90;;;;;;5076186;28;20044;-24
2023/12/09 06:43:26;;;;;;;44.08;14.27;;;7.00;99.90;;;;;;5076675;28;20131;-24
2023/12/09 06:45:51;;;;;;;40.20;13.63;;;6.90;99.90;;;;;;5076619;28;20079;-25
2023/12/09 06:48:17;;;;;;;48.50;13.30;;;6.90;99.90;;;;;;5076898;28;20044;-25
2023/12/09 06:50:43;;;;;;;40.45;13.43;;;6.80;99.90;;;;;;5074843;28;20040;-25
2023/12/09 06:53:13;;;;;;;29.70;10.82;;;6.90;99.90;;;;;;5074728;28;20462;-25
2023/12/09 06:55:39;;;;;;;56.13;12.57;;;6.80;99.90;;;;;;5076246;28;20063;-25
2023/12/09 06:58:05;;;;;;;37.83;11.93;;;6.90;99.90;;;;;;5076114;28;20486;-25
2023/12/09 07:00:31;;;;;;;37.47;12.52;;;6.90;99.90;;;;;;5075890;28;20446;-25
2023/12/09 07:02:57;;;;;;;31.75;11.82;;;6.90;99.90;;;;;;5076617;28;20122;-25
2023/12/09 07:05:23;;;;;;;27.45;10.95;;;6.90;99.90;;;;;;5075734;28;20056;-25
2023/12/09 07:07:49;;;;;;;37.03;14.15;;;6.90;99.90;;;;;;5075628;28;20040;-26
2023/12/09 07:10:16;;;;;;;39.75;12.82;;;6.90;99.90;;;;;;5074593;28;20057;-26
2023/12/09 07:12:43;;;;;;;30.45;9.68;;;6.90;99.90;;;;;;5074847;28;20063;-26
2023/12/09 07:15:09;;;;;;;34.17;12.35;;;6.90;99.90;;;;;;5074861;28;20048;-26
2023/12/09 07:17:35;;;;;;;40.13;12.88;;;6.80;99.90;;;;;;5074893;28;20425;-25
2023/12/09 07:20:01;;;;;;;39.63;12.85;;;6.80;99.90;;;;;;5075462;28;20052;-25
2023/12/09 07:22:27;;;;;;;33.05;10.65;;;6.80;99.90;;;;;;5057684;28;20095;-26
2023/12/09 07:24:53;;;;;;;39.67;13.23;;;6.70;99.90;;;;;;5075007;28;20106;-26
2023/12/09 07:27:18;;;;;;;25.25;9.35;;;6.70;99.90;;;;;;5057695;28;20475;-26
2023/12/09 07:29:44;;;;;;;28.67;12.35;;;6.80;99.90;;;;;;5075272;28;20045;-26
2023/12/09 07:32:10;;;;;;;38.25;11.80;;;6.70;99.90;;;;;;5075261;28;20052;-26
2023/12/09 07:34:36;;;;;;;35.42;12.65;;;6.70;99.90;;;;;;5075064;28;20040;-26
2023/12/09 07:37:01;;;;;;;35.92;12.77;;;6.60;99.90;;;;;;5074802;28;20402;-26
2023/12/09 07:39:27;;;;;;;29.80;11.55;;;6.60;99.90;;;;;;5057396;28;20055;-26
2023/12/09 07:41:53;;;;;;;39.67;13.18;;;6.60;99.90;;;;;;5074651;28;20185;-26
2023/12/09 07:44:20;;;;;;;37.80;13.13;;;6.60;99.90;;;;;;5074804;28;20051;-26
2023/12/09 07:46:46;;;;;;;25.75;10.38;;;6.60;99.90;;;;;;5074945;28;20063;-26
2023/12/09 07:49:12;;;;;;;33.55;11.68;;;6.60;99.90;;;;;;5073667;28;20052;-26
2023/12/09 07:51:38;;;;;;;32.17;11.75;;;6.60;99.90;;;;;;5074497;28;20550;-26
2023/12/09 07:54:04;;;;;;;44.88;13.00;;;6.60;99.90;;;;;;5073178;28;20150;-26
2023/12/09 07:56:30;;;;;;;36.33;11.90;;;6.50;99.90;;;;;;5074258;28;20131;-27
2023/12/09 07:58:56;;;;;;;35.15;12.07;;;6.60;99.90;;;;;;5075200;28;20052;-26
2023/12/09 08:01:23;;;;;;;35.33;14.35;;;6.60;99.90;;;;;;5074585;28;20052;-26
2023/12/09 08:03:49;;;;;;;43.28;11.73;;;6.60;99.90;;;;;;5074607;28;20075;-26
2023/12/09 08:06:14;;;;;;;31.55;10.13;;;6.60;99.90;;;;;;5074203;28;20079;-26
2023/12/09 08:08:40;;;;;;;39.55;10.68;;;6.60;99.90;;;;;;5075274;28;20056;-26
2023/12/09 08:11:06;;;;;;;37.72;10.23;;;6.60;99.90;;;;;;5074964;28;20551;-26
2023/12/09 08:13:33;;;;;;;38.55;10.07;;;6.60;99.90;;;;;;5074726;28;20059;-26
2023/12/09 08:15:59;;;;;;;30.77;9.73;;;6.60;99.90;;;;;;5074301;28;20102;-27
2023/12/09 08:18:25;;;;;;;33.67;9.88;;;6.60;99.90;;;;;;5073297;28;20036;-27
2023/12/09 08:20:52;;;;;;;33.33;9.15;;;6.60;99.90;;;;;;5074866;28;20052;-26
2023/12/09 08:23:17;;;;;;;33.40;11.63;;;6.70;99.90;;;;;;5072500;28;20045;-27
2023/12/09 08:25:43;;;;;;;40.47;10.68;;;6.70;99.90;;;;;;5073038;28;20509;-27
2023/12/09 08:28:10;;;;;;;43.65;11.68;;;6.70;99.90;;;;;;5074662;28;20532;-26
2023/12/09 08:30:36;;;;;;;26.75;9.25;;;6.70;99.90;;;;;;5074939;28;20056;-27
2023/12/09 08:33:02;;;;;;;33.65;9.70;;;6.70;99.90;;;;;;5073674;28;20363;-26
2023/12/09 08:35:28;;;;;;;34.80;10.82;;;6.70;99.90;;;;;;5074005;28;20044;-26
2023/12/09 08:37:54;;;;;;;35.08;11.70;;;6.70;99.90;;;;;;5074017;28;20109;-27
2023/12/09 08:40:19;;;;;;;37.75;10.27;;;6.60;99.90;;;;;;5073941;28;20049;-26
2023/12/09 08:42:46;;;;;;;42.92;12.40;;;6.60;99.90;;;;;;5072969;28;20040;-27
2023/12/09 08:45:14;;;;;;;39.03;12.35;;;6.70;99.90;;;;;;5073887;28;20500;-27
2023/12/09 08:47:40;;;;;;;31.15;10.32;;;6.60;99.90;;;;;;5073846;28;20044;-27
2023/12/09 08:50:08;;;;;;;37.67;11.55;;;6.60;99.90;;;;;;5074578;28;20058;-27
2023/12/09 08:52:34;;;;;;;36.53;11.27;;;6.60;99.90;;;;;;5073679;28;20051;-27
2023/12/09 08:55:00;;;;;;;25.55;9.90;;;6.60;99.90;;;;;;5073750;28;20127;-27
2023/12/09 08:57:27;;;;;;;37.40;11.98;;;6.60;99.90;;;;;;5055747;28;20052;-27
2023/12/09 08:59:54;;;;;;;32.85;11.85;;;6.60;99.90;;;;;;5074544;28;20205;-27
2023/12/09 09:02:21;;;;;;;24.63;9.70;;;6.60;99.90;;;;;;5073757;28;20045;-27
2023/12/09 09:04:47;;;;;;;35.00;13.45;;;6.60;99.90;;;;;;5072474;28;20119;-27
2023/12/09 09:07:14;;;;;;;41.58;16.23;;;6.60;99.90;;;;;;5073639;28;20048;-27
2023/12/09 09:09:39;;;;;;;35.78;13.82;;;6.60;99.90;;;;;;5073614;28;20040;-27
2023/12/09 09:12:08;;;;;;;25.13;9.48;;;6.60;99.90;;;;;;5073549;28;20051;-27
2023/12/09 09:14:34;;;;;;;40.20;12.00;;;6.60;99.90;;;;;;5073304;28;20441;-27
2023/12/09 09:17:00;;;;;;;36.13;11.30;;;6.60;99.90;;;;;;5074378;28;20047;-27
2023/12/09 09:19:26;;;;;;;41.63;8.20;;;6.60;99.90;;;;;;5073542;28;20414;-27
2023/12/09 09:21:52;;;;;;;37.03;9.95;;;6.70;99.90;;;;;;5073506;28;20048;-27
2023/12/09 09:24:18;;;;;;;33.08;8.88;;;6.70;99.90;;;;;;5072406;28;20417;-27
2023/12/09 09:26:44;;;;;;;22.67;6.07;;;6.70;99.90;;;;;;5073436;28;20044;-27
2023/12/09 09:29:13;;;;;;;30.20;7.18;;;6.70;99.90;;;;;;5073746;28;20127;-27
2023/12/09 09:31:38;;;;;;;33.83;7.75;;;6.70;99.90;;;;;;5072221;28;20049;-28
2023/12/09 09:34:04;;;;;;;30.67;8.52;;;6.80;99.90;;;;;;5072222;28;20055;-28
2023/12/09 09:36:30;;;;;;;33.25;8.13;;;7.00;99.90;;;;;;5077391;28;20044;-27
2023/12/09 09:38:56;;;;;;;22.60;6.95;;;6.90;99.90;;;;;;5077350;28;20049;-28
2023/12/09 09:41:34;;;;;;;27.13;6.72;;;6.90;99.90;;;;;;5059629;28;20091;-27
2023/12/09 09:44:10;;;;;;;26.70;6.68;;;6.90;99.90;;;;;;5077856;28;20044;-27
2023/12/09 09:46:38;;;;;;;34.30;10.10;;;6.90;99.90;;;;;;5078104;28;20056;-27
2023/12/09 09:49:04;;;;;;;24.73;5.88;;;6.90;99.90;;;;;;5077203;28;20109;-27
2023/12/09 09:51:31;;;;;;;29.45;5.88;;;6.90;99.90;;;;;;5077378;28;20063;-28
2023/12/09 09:54:04;;;;;;;35.42;7.72;;;6.90;99.90;;;;;;5076939;28;20040;-28
2023/12/09 09:56:31;;;;;;;14.17;4.47;;;6.90;99.90;;;;;;5076383;28;20049;-27
2023/12/09 09:58:57;;;;;;;25.27;8.32;;;6.90;99.90;;;;;;5077764;28;20123;-28
2023/12/09 10:01:25;;;;;;;26.48;6.25;;;6.80;99.90;;;;;;5077190;28;20055;-28
2023/12/09 10:03:51;;;;;;;21.33;4.95;;;6.80;99.90;;;;;;5076892;28;20155;-28
2023/12/09 10:06:18;;;;;;;26.20;6.28;;;6.90;99.90;;;;;;5077098;28;20480;-28
2023/12/09 10:08:44;;;;;;;17.10;4.82;;;6.90;99.90;;;;;;5076787;28;20051;-28
2023/12/09 10:11:10;;;;;;;26.17;6.32;;;6.90;99.90;;;;;;5076752;28;20045;-28
2023/12/09 10:13:36;;;;;;;15.00;3.97;;;6.90;99.90;;;;;;5075337;28;20154;-28
2023/12/09 10:16:03;;;;;;;21.30;5.70;;;6.90;99.90;;;;;;5077236;28;20052;-28
2023/12/09 10:18:30;;;;;;;25.77;5.78;;;6.90;99.90;;;;;;5076674;28;20052;-29
2023/12/09 10:20:56;;;;;;;21.48;5.07;;;6.90;99.90;;;;;;5076546;28;20071;-28
2023/12/09 10:23:22;;;;;;;17.05;4.45;;;6.90;99.90;;;;;;5077007;28;20463;-28
2023/12/09 10:25:48;;;;;;;22.98;7.13;;;6.90;99.90;;;;;;5076498;28;20044;-28
2023/12/09 10:28:14;;;;;;;24.40;5.75;;;7.00;99.90;;;;;;5076446;28;20056;-30
2023/12/09 10:30:44;;;;;;;20.23;5.32;;;7.00;99.90;;;;;;5076364;28;20044;-28
2023/12/09 10:33:11;;;;;;;16.10;5.07;;;7.00;99.90;;;;;;5073540;28;20044;-26
2023/12/09 10:35:36;;;;;;;19.50;4.97;;;7.00;99.90;;;;;;5059040;28;20048;-29
2023/12/09 10:38:04;;;;;;;21.95;4.53;;;7.10;99.90;;;;;;5056816;28;20055;-28
2023/12/09 10:40:32;;;;;;;21.33;4.68;;;7.10;99.90;;;;;;5055027;28;20045;-28
2023/12/09 10:42:58;;;;;;;19.10;4.68;;;7.20;99.90;;;;;;5056979;28;20041;-29
2023/12/09 10:45:24;;;;;;;20.88;5.10;;;7.20;99.90;;;;;;5055418;28;20207;-28
2023/12/09 10:47:49;;;;;;;19.00;4.72;;;7.20;99.90;;;;;;5054850;28;20053;-28
2023/12/09 10:50:15;;;;;;;23.25;4.45;;;7.30;99.90;;;;;;5055956;28;20084;-29
2023/12/09 10:52:41;;;;;;;15.82;4.20;;;7.30;99.90;;;;;;5054659;28;20045;-28
2023/12/09 10:55:07;;;;;;;21.67;3.83;;;7.30;99.90;;;;;;5055878;28;20398;-28
2023/12/09 10:57:33;;;;;;;24.92;4.45;;;7.30;99.90;;;;;;5056076;28;20049;-28
2023/12/09 11:00:09;;;;;;;17.13;4.63;;;7.20;99.90;;;;;;5055753;28;20131;-28
2023/12/09 11:02:37;;;;;;;18.17;4.30;;;7.30;99.90;;;;;;5054602;28;20049;-29
2023/12/09 11:05:03;;;;;;;21.20;3.92;;;7.30;99.90;;;;;;5055650;28;20055;-30
2023/12/09 11:07:29;;;;;;;16.70;3.80;;;7.30;99.90;;;;;;5055670;28;20056;-28
2023/12/09 11:09:55;;;;;;;13.63;3.38;;;7.30;99.90;;;;;;5054471;28;20446;-28
2023/12/09 11:12:27;;;;;;;15.90;3.13;;;7.30;99.90;;;;;;5055207;28;20380;-29
2023/12/09 11:14:53;;;;;;;16.37;3.93;;;7.40;99.90;;;;;;5055631;28;20055;-28
2023/12/09 11:17:36;;;;;;;24.35;3.60;;;7.30;99.90;;;;;;5055540;28;20049;-29
2023/12/09 11:20:18;;;;;;;18.23;3.57;;;7.40;99.90;;;;;;5055544;28;20510;-28
2023/12/09 11:22:45;;;;;;;14.18;3.88;;;7.30;99.90;;;;;;5055379;28;20045;-29
2023/12/09 11:25:22;;;;;;;18.42;3.47;;;7.40;99.90;;;;;;5055421;28;20053;-29
2023/12/09 11:27:52;;;;;;;11.98;2.85;;;7.30;99.90;;;;;;5055897;28;20044;-29
2023/12/09 11:30:30;;;;;;;16.73;2.75;;;7.30;99.90;;;;;;5055259;28;20052;-29
2023/12/09 11:32:56;;;;;;;12.80;2.28;;;7.30;99.90;;;;;;5055074;28;20526;-29
2023/12/09 11:35:25;;;;;;;16.40;2.30;;;7.30;99.90;;;;;;5054913;28;20127;-29
2023/12/09 11:37:51;;;;;;;14.48;3.80;;;7.30;99.90;;;;;;5055113;28;20136;-29
2023/12/09 11:40:17;;;;;;;14.73;2.90;;;7.20;99.90;;;;;;5037430;28;20053;-29
2023/12/09 11:42:44;;;;;;;14.60;3.65;;;7.20;99.90;;;;;;5054828;28;20081;-29
2023/12/09 11:45:10;;;;;;;16.73;2.95;;;7.30;99.90;;;;;;5037345;28;20041;-29
2023/12/09 11:47:38;;;;;;;15.10;2.42;;;7.30;99.90;;;;;;5054872;28;20048;-29
2023/12/09 11:50:07;;;;;;;15.98;3.88;;;7.30;99.90;;;;;;5053855;28;20483;-29
2023/12/09 11:52:33;;;;;;;10.18;2.13;;;7.40;99.90;;;;;;5055361;28;20045;-29
2023/12/09 11:55:10;;;;;;;18.98;3.03;;;7.40;99.90;;;;;;5054137;28;20049;-29
2023/12/09 11:57:38;;;;;;;11.88;2.65;;;7.40;99.90;;;;;;5053853;28;20063;-29
2023/12/09 12:00:06;;;;;;;13.80;2.42;;;7.40;99.90;;;;;;5054641;28;20060;-29
2023/12/09 12:02:33;;;;;;;12.85;2.65;;;7.40;99.90;;;;;;5054628;28;20049;-30
2023/12/09 12:04:59;;;;;;;14.00;2.83;;;7.40;99.90;;;;;;5054545;28;20087;-30
2023/12/09 12:07:25;;;;;;;13.63;2.17;;;7.40;99.90;;;;;;5054540;28;20076;-30
2023/12/09 12:09:51;;;;;;;13.45;2.15;;;7.30;99.90;;;;;;5054951;28;20110;-30
2023/12/09 12:12:20;;;;;;;15.25;3.00;;;7.30;99.90;;;;;;5054368;28;20048;-30
2023/12/09 12:14:47;;;;;;;8.23;2.08;;;7.30;99.90;;;;;;5037165;28;20055;-30
2023/12/09 12:17:13;;;;;;;13.80;3.20;;;7.30;99.90;;;;;;5054523;28;20391;-31
2023/12/09 12:19:39;;;;;;;10.45;2.80;;;7.30;99.90;;;;;;5053973;28;20052;-30
2023/12/09 12:22:05;;;;;;;12.35;3.05;;;7.30;99.90;;;;;;5054207;28;20052;-31
2023/12/09 12:24:45;;;;;;;10.90;3.03;;;7.30;99.90;;;;;;5054258;28;20502;-30
2023/12/09 12:27:10;;;;;;;10.00;2.30;;;7.30;99.90;;;;;;5054165;28;20060;-30
2023/12/09 12:29:40;;;;;;;10.55;2.88;;;7.30;99.90;;;;;;5054675;28;20053;-30
2023/12/09 12:32:07;;;;;;;14.98;2.80;;;7.30;99.90;;;;;;5053064;28;20089;-30
2023/12/09 12:34:33;;;;;;;10.38;2.85;;;7.30;99.90;;;;;;5053923;28;20147;-31
2023/12/09 12:36:59;;;;;;;10.95;2.47;;;7.30;99.90;;;;;;5053925;28;20084;-31